Emporium, Pennsylvania
Current Conditions -  °F | °C
As of 5:30 AM on Thursday 18 Dec 2014 (Local Time) from KBFD Reporting Station
Unknown Precip Unknown Precip  
Wind Chill: 14°   Ceiling: 900
Heat Index: 25°   Visibility: 7mi
Dew Point: 20°   Wind: 12mph
Humidity: 81%   Direction: 290°WNW
Pressure: 30.01"   Gusts: NA
Location:  41.51°N, 78.24°W
Report Text: KBFD 181030Z AUTO 29010KT 7SM UP OVC009 M04/M07 A3001 RMK AO2 UPE0959B30SNB19E30 P0000 T10391067
Loading
Personal Weather Stations






























Interactive Weather Map New forecast layout! Learn more

10-Day Weather Forecast

Advertisements
Track Severe Weather on mobile